createdAt,value
2022-09-25T00:01:36.255Z,28.98
2022-09-25T00:04:05.669Z,28.40
2022-09-25T00:06:33.998Z,29.00
2022-09-25T00:09:03.117Z,28.42
2022-09-25T00:11:33.002Z,26.65
2022-09-25T00:14:05.446Z,26.13
2022-09-25T00:16:33.992Z,24.73
2022-09-25T00:19:19.759Z,23.48
2022-09-25T00:21:53.307Z,24.77
2022-09-25T00:24:22.337Z,23.77
2022-09-25T00:26:50.540Z,22.27
2022-09-25T00:29:21.537Z,22.70
2022-09-25T00:31:52.441Z,21.33
2022-09-25T00:34:20.490Z,19.60
2022-09-25T00:36:48.497Z,21.10
2022-09-25T00:39:16.698Z,20.48
2022-09-25T00:41:47.690Z,20.08
2022-09-25T00:44:56.493Z,21.52
2022-09-25T00:47:45.908Z,19.15
2022-09-25T00:50:26.168Z,21.15
2022-09-25T00:52:55.850Z,20.48
2022-09-25T00:55:24.462Z,20.27
2022-09-25T00:57:56.926Z,21.33
2022-09-25T01:00:26.597Z,21.15
2022-09-25T01:02:57.669Z,21.90
2022-09-25T01:05:29.941Z,20.77
2022-09-25T01:08:00.853Z,22.02
2022-09-25T01:10:29.725Z,22.27
2022-09-25T01:13:00.965Z,22.67
2022-09-25T01:15:38.545Z,23.15
2022-09-25T01:18:17.873Z,22.45
2022-09-25T01:21:03.357Z,23.35
2022-09-25T01:23:45.752Z,22.77
2022-09-25T01:26:35.871Z,22.60
2022-09-25T01:29:12.212Z,22.90
2022-09-25T01:31:47.878Z,22.77
2022-09-25T01:34:20.126Z,23.20
2022-09-25T01:36:52.940Z,24.75
2022-09-25T01:39:23.786Z,25.27
2022-09-25T01:41:56.996Z,25.02
2022-09-25T01:44:31.543Z,26.40
2022-09-25T01:47:09.627Z,27.47
2022-09-25T01:49:47.204Z,28.38
2022-09-25T01:52:18.723Z,29.85
2022-09-25T01:54:51.918Z,29.23
2022-09-25T01:57:24.216Z,30.00
2022-09-25T01:59:59.230Z,32.37
2022-09-25T02:02:34.026Z,31.02
2022-09-25T02:05:09.075Z,31.03
2022-09-25T02:07:41.263Z,29.00
2022-09-25T02:10:14.004Z,30.75
2022-09-25T02:12:47.170Z,29.63
2022-09-25T02:15:20.432Z,28.40
2022-09-25T02:18:12.136Z,30.07
2022-09-25T02:20:42.436Z,30.25
2022-09-25T02:23:18.829Z,32.13
2022-09-25T02:25:50.761Z,32.30
2022-09-25T02:28:18.994Z,31.90
2022-09-25T02:30:50.397Z,35.67
2022-09-25T02:33:18.614Z,32.40
2022-09-25T02:35:46.576Z,33.47
2022-09-25T02:38:15.975Z,34.37
2022-09-25T02:40:51.281Z,34.67
2022-09-25T02:43:31.542Z,34.23
2022-09-25T02:46:10.271Z,34.40
2022-09-25T02:48:51.199Z,33.80
2022-09-25T02:51:25.720Z,33.73
2022-09-25T02:54:05.189Z,33.55
2022-09-25T02:56:36.868Z,32.20
2022-09-25T02:59:09.018Z,34.43
2022-09-25T03:01:41.908Z,35.33
2022-09-25T03:04:11.218Z,35.07
2022-09-25T03:06:40.785Z,34.47
2022-09-25T03:09:10.991Z,34.42
2022-09-25T03:11:41.625Z,35.80
2022-09-25T03:14:10.369Z,36.10
2022-09-25T03:16:46.254Z,33.70
2022-09-25T03:19:15.277Z,36.40
2022-09-25T03:21:43.527Z,34.38
2022-09-25T03:24:11.717Z,34.87
2022-09-25T03:26:40.556Z,33.97
2022-09-25T03:29:23.911Z,34.00
2022-09-25T03:32:00.137Z,31.77
2022-09-25T03:34:28.137Z,32.97
2022-09-25T03:36:56.180Z,33.43
2022-09-25T03:39:24.297Z,32.83
2022-09-25T03:41:52.411Z,31.40
2022-09-25T03:44:23.163Z,31.87
2022-09-25T03:46:51.211Z,32.00
2022-09-25T03:49:20.562Z,32.23
2022-09-25T03:51:48.629Z,31.20
2022-09-25T03:54:18.696Z,31.30
2022-09-25T03:56:46.745Z,31.77
2022-09-25T03:59:14.960Z,30.37
2022-09-25T04:01:47.632Z,30.27
2022-09-25T04:04:15.752Z,30.03
2022-09-25T04:06:46.027Z,30.97
2022-09-25T04:09:14.059Z,30.07
2022-09-25T04:11:43.004Z,30.40
2022-09-25T04:14:15.834Z,30.50
2022-09-25T04:16:43.916Z,29.33
2022-09-25T04:19:15.945Z,29.90
2022-09-25T04:21:45.388Z,30.70
2022-09-25T04:24:30.917Z,30.83
2022-09-25T04:26:59.003Z,29.53
2022-09-25T04:29:27.942Z,30.67
2022-09-25T04:32:11.766Z,29.75
2022-09-25T04:34:39.802Z,28.57
2022-09-25T04:37:10.545Z,30.73
2022-09-25T04:39:38.564Z,31.40
2022-09-25T04:42:06.757Z,29.93
2022-09-25T04:44:37.681Z,31.20
2022-09-25T04:47:05.917Z,30.27
2022-09-25T04:49:33.897Z,30.47
2022-09-25T04:52:02.296Z,30.43
2022-09-25T04:54:32.684Z,30.83
2022-09-25T04:57:00.711Z,32.93
2022-09-25T04:59:28.904Z,33.73
2022-09-25T05:01:57.152Z,35.70
2022-09-25T05:04:25.451Z,36.57
2022-09-25T05:06:53.500Z,33.67
2022-09-25T05:09:21.510Z,33.33
2022-09-25T05:11:51.020Z,33.80
2022-09-25T05:14:18.988Z,36.08
2022-09-25T05:16:47.532Z,37.80
2022-09-25T05:19:15.534Z,36.38
2022-09-25T05:21:44.260Z,35.75
2022-09-25T05:24:13.640Z,37.03
2022-09-25T05:26:42.743Z,35.87
2022-09-25T05:29:12.228Z,35.88
2022-09-25T05:31:46.806Z,34.33
2022-09-25T05:34:14.947Z,31.95
2022-09-25T05:36:43.077Z,30.70
2022-09-25T05:39:14.448Z,29.50
2022-09-25T05:41:42.897Z,28.10
2022-09-25T05:44:12.624Z,27.80
2022-09-25T05:46:40.969Z,27.90
2022-09-25T05:49:09.113Z,27.65
2022-09-25T05:51:37.235Z,27.90
2022-09-25T05:54:05.375Z,27.35
2022-09-25T05:56:33.479Z,28.38
2022-09-25T05:59:01.619Z,28.30
2022-09-25T06:01:31.062Z,26.85
2022-09-25T06:03:59.060Z,27.85
2022-09-25T06:06:27.744Z,28.13
2022-09-25T06:08:56.282Z,27.70
2022-09-25T06:11:27.633Z,27.23
2022-09-25T06:13:57.270Z,25.58
2022-09-25T06:16:25.306Z,25.20
2022-09-25T06:18:54.714Z,25.98
2022-09-25T06:21:22.713Z,26.05
2022-09-25T06:23:54.417Z,27.00
2022-09-25T06:26:23.310Z,24.25
2022-09-25T06:28:51.330Z,25.25
2022-09-25T06:31:19.440Z,24.25
2022-09-25T06:33:51.586Z,24.77
2022-09-25T06:36:21.042Z,24.33
2022-09-25T06:38:49.413Z,25.00
2022-09-25T06:41:17.689Z,25.25
2022-09-25T06:43:46.366Z,25.02
2022-09-25T06:46:14.465Z,25.27
2022-09-25T06:48:42.721Z,25.15
2022-09-25T06:51:10.826Z,25.25
2022-09-25T06:53:40.087Z,23.08
2022-09-25T06:56:08.149Z,22.85
2022-09-25T06:58:36.151Z,22.38
2022-09-25T07:01:09.651Z,22.50
2022-09-25T07:03:46.025Z,21.80
2022-09-25T07:06:15.687Z,22.48
2022-09-25T07:08:45.604Z,23.95
2022-09-25T07:11:15.376Z,23.48
2022-09-25T07:13:43.486Z,23.05
2022-09-25T07:16:14.455Z,23.33
2022-09-25T07:18:43.870Z,23.55
2022-09-25T07:21:13.936Z,23.13
2022-09-25T07:23:42.167Z,24.10
2022-09-25T07:26:13.783Z,23.20
2022-09-25T07:28:43.467Z,23.80
2022-09-25T07:31:13.391Z,24.05
2022-09-25T07:33:41.564Z,24.77
2022-09-25T07:36:10.315Z,23.85
2022-09-25T07:38:38.555Z,22.90
2022-09-25T07:41:07.278Z,24.48
2022-09-25T07:43:40.235Z,25.15
2022-09-25T07:46:08.493Z,22.85
2022-09-25T07:48:36.567Z,22.50
2022-09-25T07:51:07.088Z,24.25
2022-09-25T07:53:35.172Z,23.83
2022-09-25T07:56:07.407Z,23.40
2022-09-25T07:58:36.584Z,24.60
2022-09-25T08:01:07.919Z,23.27
2022-09-25T08:03:36.188Z,23.77
2022-09-25T08:06:05.937Z,23.98
2022-09-25T08:08:35.733Z,23.70
2022-09-25T08:11:06.898Z,24.27
2022-09-25T08:13:35.544Z,23.45
2022-09-25T08:16:05.318Z,23.20
2022-09-25T08:18:33.436Z,23.42
2022-09-25T08:21:03.558Z,23.92
2022-09-25T08:23:32.246Z,24.17
2022-09-25T08:26:00.477Z,23.23
2022-09-25T08:28:29.239Z,23.77
2022-09-25T08:30:59.401Z,23.02
2022-09-25T08:33:31.909Z,22.52
2022-09-25T08:36:01.754Z,21.92
2022-09-25T08:38:33.429Z,23.58
2022-09-25T08:41:05.941Z,23.30
2022-09-25T08:43:36.362Z,26.83
2022-09-25T08:46:26.661Z,21.73
2022-09-25T08:49:03.695Z,21.77
2022-09-25T08:51:34.007Z,21.13
2022-09-25T08:54:02.510Z,20.13
2022-09-25T08:56:32.677Z,21.05
2022-09-25T08:59:05.745Z,21.05
2022-09-25T09:01:43.870Z,20.77
2022-09-25T09:04:20.444Z,20.20
2022-09-25T09:07:24.712Z,19.55
2022-09-25T09:09:46.217Z,21.05
2022-09-25T09:12:19.598Z,19.05
2022-09-25T09:14:51.408Z,20.17
2022-09-25T09:17:22.598Z,18.90
2022-09-25T09:19:55.107Z,18.85
2022-09-25T09:22:30.962Z,19.55
2022-09-25T09:25:06.423Z,18.73
2022-09-25T09:27:55.135Z,19.42
2022-09-25T09:30:28.384Z,18.58
2022-09-25T09:33:17.608Z,19.00
2022-09-25T09:35:56.374Z,16.67
2022-09-25T09:38:33.822Z,16.65
2022-09-25T09:41:17.097Z,16.45
2022-09-25T09:43:58.281Z,15.18
2022-09-25T09:46:35.390Z,14.75
2022-09-25T09:49:13.760Z,14.75
2022-09-25T09:51:49.747Z,14.73
2022-09-25T09:54:25.306Z,14.73
2022-09-25T09:56:55.802Z,14.73
2022-09-25T09:59:29.405Z,16.00
2022-09-25T10:02:04.082Z,14.57
2022-09-25T10:04:37.686Z,15.07
2022-09-25T10:07:12.939Z,14.95
2022-09-25T10:09:40.982Z,15.35
2022-09-25T10:12:14.787Z,14.93
2022-09-25T10:14:46.808Z,14.20
2022-09-25T10:17:15.592Z,14.85
2022-09-25T10:19:50.364Z,14.10
2022-09-25T10:22:22.676Z,13.15
2022-09-25T10:24:54.018Z,14.45
2022-09-25T10:27:30.577Z,13.60
2022-09-25T10:30:15.917Z,12.80
2022-09-25T10:32:46.988Z,13.15
2022-09-25T10:35:17.729Z,11.38
2022-09-25T10:37:51.608Z,11.18
2022-09-25T10:40:26.945Z,11.75
2022-09-25T10:43:07.407Z,10.55
2022-09-25T10:45:38.634Z,11.73
2022-09-25T10:48:44.443Z,10.13
2022-09-25T10:51:14.696Z,10.27
2022-09-25T10:53:44.905Z,9.98
2022-09-25T10:56:17.572Z,9.27
2022-09-25T10:58:51.241Z,8.27
2022-09-25T11:01:19.682Z,8.57
2022-09-25T11:03:55.178Z,8.40
2022-09-25T11:06:27.215Z,7.97
2022-09-25T11:09:09.502Z,8.90
2022-09-25T11:11:38.775Z,8.32
2022-09-25T11:14:09.447Z,8.07
2022-09-25T11:16:49.441Z,7.88
2022-09-25T11:19:23.233Z,7.88
2022-09-25T11:22:00.292Z,8.25
2022-09-25T11:24:40.537Z,7.50
2022-09-25T11:27:13.675Z,7.57
2022-09-25T11:29:49.809Z,7.68
2022-09-25T11:32:26.934Z,6.18
2022-09-25T11:35:13.882Z,5.85
2022-09-25T11:37:48.812Z,5.72
2022-09-25T11:40:49.027Z,5.05
2022-09-25T11:43:22.100Z,4.95
2022-09-25T11:45:56.952Z,4.35
2022-09-25T11:48:30.010Z,4.90
2022-09-25T11:51:04.421Z,5.38
2022-09-25T11:53:41.604Z,5.55
2022-09-25T11:56:25.472Z,5.10
2022-09-25T11:59:04.273Z,4.88
2022-09-25T12:01:37.010Z,4.65
2022-09-25T12:04:36.978Z,5.22
2022-09-25T12:07:43.858Z,5.50
2022-09-25T12:10:32.869Z,5.47
2022-09-25T12:13:13.120Z,5.30
2022-09-25T12:15:57.300Z,5.53
2022-09-25T12:18:40.335Z,6.10
2022-09-25T12:21:15.231Z,6.03
2022-09-25T12:23:50.623Z,6.00
2022-09-25T12:26:26.118Z,6.40
2022-09-25T12:29:10.897Z,6.72
2022-09-25T12:31:51.681Z,6.57
2022-09-25T12:34:30.580Z,6.80
2022-09-25T12:37:08.114Z,6.90
2022-09-25T12:39:41.935Z,6.75
2022-09-25T12:42:17.517Z,6.80
2022-09-25T12:44:53.085Z,7.30
2022-09-25T12:47:33.444Z,6.55
2022-09-25T12:50:09.567Z,6.80
2022-09-25T12:52:43.168Z,7.25
2022-09-25T12:55:27.181Z,7.20
2022-09-25T12:58:09.286Z,7.18
2022-09-25T13:00:43.226Z,6.72
2022-09-25T13:03:15.839Z,7.10
2022-09-25T13:05:49.141Z,6.75
2022-09-25T13:08:23.646Z,7.10
2022-09-25T13:10:57.757Z,6.82
2022-09-25T13:13:28.832Z,7.05
2022-09-25T13:15:59.906Z,6.35
2022-09-25T13:18:30.339Z,6.55
2022-09-25T13:21:00.991Z,6.50
2022-09-25T13:23:32.662Z,6.20
2022-09-25T13:26:03.488Z,6.30
2022-09-25T13:28:36.986Z,6.35
2022-09-25T13:31:09.973Z,6.43
2022-09-25T13:33:51.270Z,6.07
2022-09-25T13:36:39.732Z,5.80
2022-09-25T13:39:36.006Z,6.47
2022-09-25T13:42:13.608Z,5.65
2022-09-25T13:45:29.370Z,5.97
2022-09-25T13:48:17.744Z,5.90
2022-09-25T13:51:34.984Z,5.72
2022-09-25T13:54:05.076Z,6.60
2022-09-25T13:56:55.100Z,6.05
2022-09-25T13:59:39.687Z,6.07
2022-09-25T14:02:41.120Z,5.97
2022-09-25T14:05:17.246Z,6.00
2022-09-25T14:07:47.683Z,5.93
2022-09-25T14:10:17.640Z,6.55
2022-09-25T14:12:48.372Z,6.43
2022-09-25T14:15:26.894Z,5.25
2022-09-25T14:18:05.999Z,6.03
2022-09-25T14:20:39.565Z,6.38
2022-09-25T14:23:14.199Z,6.25
2022-09-25T14:25:44.943Z,6.25
2022-09-25T14:28:22.082Z,6.60
2022-09-25T14:31:18.328Z,6.40
2022-09-25T14:34:19.210Z,5.70
2022-09-25T14:37:01.828Z,6.25
2022-09-25T14:39:38.178Z,6.15
2022-09-25T14:42:31.846Z,6.10
2022-09-25T14:45:12.676Z,6.22
2022-09-25T14:47:44.663Z,6.00
2022-09-25T14:50:21.207Z,6.07
2022-09-25T14:52:55.535Z,6.25
2022-09-25T14:55:24.639Z,6.15
2022-09-25T14:57:53.190Z,6.40
2022-09-25T15:00:24.624Z,6.53
2022-09-25T15:02:56.370Z,6.40
2022-09-25T15:05:33.587Z,6.15
2022-09-25T15:08:23.402Z,6.15
2022-09-25T15:11:02.572Z,6.63
2022-09-25T15:13:33.715Z,6.53
2022-09-25T15:16:20.922Z,6.47
2022-09-25T15:18:54.381Z,6.22
2022-09-25T15:21:26.529Z,6.40
2022-09-25T15:23:59.160Z,6.55
2022-09-25T15:26:29.098Z,6.30
2022-09-25T15:28:57.615Z,6.22
2022-09-25T15:31:37.669Z,6.55
2022-09-25T15:34:13.094Z,6.60
2022-09-25T15:36:41.298Z,6.32
2022-09-25T15:39:16.157Z,6.65
2022-09-25T15:41:45.054Z,6.32
2022-09-25T15:44:18.500Z,7.00
2022-09-25T15:46:49.720Z,6.63
2022-09-25T15:49:21.067Z,6.93
2022-09-25T15:51:53.221Z,6.90
2022-09-25T15:54:33.306Z,6.50
2022-09-25T15:57:04.122Z,6.68
2022-09-25T15:59:36.542Z,7.28
2022-09-25T16:02:38.950Z,7.00
2022-09-25T16:05:11.037Z,7.10
2022-09-25T16:07:40.991Z,6.97
2022-09-25T16:10:31.660Z,7.82
2022-09-25T16:13:02.584Z,7.20
2022-09-25T16:15:46.338Z,7.28
2022-09-25T16:18:39.625Z,7.60
2022-09-25T16:21:22.221Z,6.85
2022-09-25T16:23:56.238Z,7.72
2022-09-25T16:26:28.276Z,7.93
2022-09-25T16:29:05.258Z,7.18
2022-09-25T16:31:36.434Z,7.45
2022-09-25T16:34:11.224Z,7.55
2022-09-25T16:36:42.870Z,7.78
2022-09-25T16:39:25.034Z,8.07
2022-09-25T16:41:54.678Z,8.07
2022-09-25T16:44:29.465Z,8.20
2022-09-25T16:47:18.867Z,7.80
2022-09-25T16:49:47.540Z,8.48
2022-09-25T16:52:20.460Z,8.43
2022-09-25T16:54:53.371Z,7.78
2022-09-25T16:57:25.161Z,8.80
2022-09-25T16:59:53.855Z,8.75
2022-09-25T17:02:33.720Z,8.27
2022-09-25T17:05:03.755Z,8.90
2022-09-25T17:07:31.753Z,9.45
2022-09-25T17:10:01.210Z,9.80
2022-09-25T17:12:32.375Z,9.68
2022-09-25T17:15:00.876Z,11.02
2022-09-25T17:17:29.797Z,10.02
2022-09-25T17:19:57.877Z,9.55
2022-09-25T17:22:30.215Z,10.55
2022-09-25T17:25:03.254Z,10.05
2022-09-25T17:27:32.664Z,9.93
2022-09-25T17:30:01.373Z,10.93
2022-09-25T17:32:31.403Z,10.15
2022-09-25T17:35:02.065Z,10.20
2022-09-25T17:37:30.129Z,10.32
2022-09-25T17:39:59.187Z,11.23
2022-09-25T17:42:27.812Z,10.73
2022-09-25T17:44:57.616Z,10.77
2022-09-25T17:47:25.728Z,11.55
2022-09-25T17:49:53.683Z,11.40
2022-09-25T17:52:22.157Z,11.27
2022-09-25T17:54:50.225Z,11.63
2022-09-25T17:57:18.355Z,12.45
2022-09-25T17:59:46.562Z,12.32
2022-09-25T18:02:17.590Z,12.73
2022-09-25T18:04:45.828Z,11.98
2022-09-25T18:07:14.362Z,12.38
2022-09-25T18:09:42.414Z,13.35
2022-09-25T18:12:13.131Z,13.20
2022-09-25T18:14:42.005Z,14.18
2022-09-25T18:17:10.249Z,14.10
2022-09-25T18:19:56.910Z,13.65
2022-09-25T18:22:25.693Z,14.98
2022-09-25T18:24:56.421Z,14.45
2022-09-25T18:27:26.324Z,13.90
2022-09-25T18:29:54.854Z,16.02
2022-09-25T18:32:24.155Z,16.63
2022-09-25T18:34:53.852Z,16.38
2022-09-25T18:37:22.027Z,17.33
2022-09-25T18:39:50.879Z,17.60
2022-09-25T18:42:19.494Z,18.92
2022-09-25T18:44:47.618Z,17.98
2022-09-25T18:47:18.526Z,18.63
2022-09-25T18:49:46.710Z,18.73
2022-09-25T18:52:19.395Z,20.35
2022-09-25T18:54:48.400Z,19.17
2022-09-25T18:57:17.199Z,19.60
2022-09-25T18:59:45.617Z,20.00
2022-09-25T19:02:20.902Z,19.80
2022-09-25T19:04:49.427Z,19.42
2022-09-25T19:07:19.608Z,20.90
2022-09-25T19:09:47.745Z,20.90
2022-09-25T19:12:17.495Z,22.10
2022-09-25T19:14:46.844Z,20.73
2022-09-25T19:17:15.911Z,23.48
2022-09-25T19:19:44.046Z,21.92
2022-09-25T19:22:17.920Z,21.45
2022-09-25T19:24:48.238Z,22.13
2022-09-25T19:27:17.704Z,21.23
2022-09-25T19:29:59.867Z,22.90
2022-09-25T19:32:27.972Z,22.70
2022-09-25T19:34:55.932Z,23.23
2022-09-25T19:37:27.803Z,23.20
2022-09-25T19:40:14.704Z,23.73
2022-09-25T19:42:42.847Z,22.70
2022-09-25T19:45:11.639Z,23.33
2022-09-25T19:47:39.782Z,23.02
2022-09-25T19:50:08.953Z,23.58
2022-09-25T19:52:37.121Z,24.85
2022-09-25T19:55:07.402Z,25.35
2022-09-25T19:57:39.330Z,26.15
2022-09-25T20:00:09.510Z,24.65
2022-09-25T20:02:37.596Z,25.38
2022-09-25T20:05:06.269Z,26.38
2022-09-25T20:07:34.257Z,26.63
2022-09-25T20:10:02.310Z,25.67
2022-09-25T20:12:34.485Z,25.10
2022-09-25T20:15:02.615Z,23.85
2022-09-25T20:17:30.629Z,24.00
2022-09-25T20:19:58.862Z,24.05
2022-09-25T20:22:26.863Z,24.15
2022-09-25T20:24:54.899Z,24.48
2022-09-25T20:27:23.567Z,24.65
2022-09-25T20:29:53.485Z,25.48
2022-09-25T20:32:21.443Z,25.05
2022-09-25T20:34:49.599Z,25.30
2022-09-25T20:37:17.574Z,25.58
2022-09-25T20:39:45.818Z,24.05
2022-09-25T20:42:13.803Z,25.08
2022-09-25T20:44:41.920Z,24.90
2022-09-25T20:47:11.605Z,24.45
2022-09-25T20:49:42.901Z,25.20
2022-09-25T20:52:12.461Z,24.77
2022-09-25T20:54:41.670Z,25.27
2022-09-25T20:57:09.940Z,24.38
2022-09-25T20:59:38.504Z,25.15
2022-09-25T21:02:06.826Z,25.95
2022-09-25T21:04:36.623Z,26.45
2022-09-25T21:07:04.684Z,26.73
2022-09-25T21:09:32.752Z,27.27
2022-09-25T21:12:05.450Z,26.23
2022-09-25T21:14:34.907Z,28.40
2022-09-25T21:17:03.028Z,26.40
2022-09-25T21:19:34.729Z,28.00
2022-09-25T21:22:04.221Z,27.13
2022-09-25T21:24:32.261Z,26.27
2022-09-25T21:27:00.562Z,26.88
2022-09-25T21:29:28.642Z,27.00
2022-09-25T21:31:57.289Z,25.70
2022-09-25T21:34:26.571Z,25.98
2022-09-25T21:36:54.620Z,25.55
2022-09-25T21:39:23.982Z,26.42
2022-09-25T21:41:52.133Z,26.25
2022-09-25T21:44:23.503Z,27.23
2022-09-25T21:46:51.606Z,25.42
2022-09-25T21:49:22.255Z,25.67
2022-09-25T21:51:51.084Z,27.92
2022-09-25T21:54:19.431Z,28.48
2022-09-25T21:56:50.148Z,27.27
2022-09-25T21:59:18.234Z,27.52
2022-09-25T22:01:46.341Z,29.02
2022-09-25T22:04:15.555Z,27.30
2022-09-25T22:06:45.665Z,29.38
2022-09-25T22:09:16.811Z,28.25
2022-09-25T22:11:49.620Z,28.88
2022-09-25T22:14:18.625Z,27.63
2022-09-25T22:16:49.478Z,28.88
2022-09-25T22:19:23.324Z,28.65
2022-09-25T22:21:53.171Z,27.52
2022-09-25T22:24:22.797Z,28.38
2022-09-25T22:26:58.149Z,29.63
2022-09-25T22:29:26.533Z,29.33
2022-09-25T22:31:55.014Z,29.70
2022-09-25T22:34:24.960Z,28.95
2022-09-25T22:36:59.146Z,29.27
2022-09-25T22:39:28.430Z,28.98
2022-09-25T22:41:58.396Z,29.23
2022-09-25T22:44:26.873Z,28.98
2022-09-25T22:46:54.983Z,30.85
2022-09-25T22:49:23.275Z,28.65
2022-09-25T22:51:53.208Z,28.33
2022-09-25T22:54:21.339Z,29.38
2022-09-25T22:56:49.332Z,29.45
2022-09-25T22:59:18.964Z,28.98
2022-09-25T23:01:49.887Z,27.05
2022-09-25T23:04:22.453Z,28.25
2022-09-25T23:06:53.540Z,26.95
2022-09-25T23:09:24.998Z,26.63
2022-09-25T23:11:53.939Z,26.52
2022-09-25T23:14:25.093Z,26.17
2022-09-25T23:16:57.075Z,28.08
2022-09-25T23:19:25.547Z,25.58
2022-09-25T23:21:54.564Z,26.48
2022-09-25T23:24:23.555Z,25.90
2022-09-25T23:26:53.265Z,25.42
2022-09-25T23:29:25.445Z,25.55
2022-09-25T23:31:53.627Z,24.77
2022-09-25T23:34:23.090Z,24.88
2022-09-25T23:36:51.263Z,24.75
2022-09-25T23:39:20.915Z,24.05
2022-09-25T23:41:49.528Z,24.90
2022-09-25T23:44:20.024Z,25.45
2022-09-25T23:46:49.442Z,24.90
2022-09-25T23:49:17.601Z,24.55
2022-09-25T23:51:46.331Z,24.58
2022-09-25T23:54:14.912Z,24.35
2022-09-25T23:56:45.041Z,23.85
2022-09-25T23:59:14.351Z,25.50
